Time;durP1;ratioP1;P1;durP2;ratioP2;P2;SDS_P1;SDS_P2;PMS_P1;PMS_P2;Temp;Humidity;BMP_temperature;BMP_pressure;BME280_temperature;BME280_humidity;BME280_pressure;Samples;Min_cycle;Max_cycle;Signal;HPM_P1;HPM_P2
2023/12/09 00:02:31;;;;;;;9.13;4.03;;;;;;;;;;6236824;23;20184;-88
2023/12/09 00:04:58;;;;;;;2.57;2.20;;;;;;;;;;6238097;23;20441;-87
2023/12/09 00:07:25;;;;;;;4.13;2.50;;;;;;;;;;6226322;23;20490;-88
2023/12/09 00:09:52;;;;;;;4.55;2.20;;;;;;;;;;6257142;23;20197;-88
2023/12/09 00:12:21;;;;;;;3.70;1.87;;;;;;;;;;6255319;22;20246;-87
2023/12/09 00:14:49;;;;;;;3.53;2.23;;;;;;;;;;6230128;23;20396;-88
2023/12/09 00:17:16;;;;;;;4.25;2.50;;;;;;;;;;6230234;23;20423;-87
2023/12/09 00:19:44;;;;;;;3.00;1.70;;;;;;;;;;6230478;23;20184;-87
2023/12/09 00:22:11;;;;;;;4.28;2.30;;;;;;;;;;6230078;23;20991;-87
2023/12/09 00:24:39;;;;;;;2.80;1.90;;;;;;;;;;6259383;23;20207;-87
2023/12/09 00:27:06;;;;;;;3.60;2.47;;;;;;;;;;6234813;23;20523;-87
2023/12/09 00:29:34;;;;;;;2.53;1.77;;;;;;;;;;6255814;23;20415;-87
2023/12/09 00:32:02;;;;;;;5.60;1.87;;;;;;;;;;6256557;22;20436;-87
2023/12/09 00:34:32;;;;;;;3.63;2.37;;;;;;;;;;6231363;23;20431;-88
2023/12/09 00:36:59;;;;;;;1.73;1.63;;;;;;;;;;6231224;23;20754;-88
2023/12/09 00:39:26;;;;;;;4.60;2.30;;;;;;;;;;6229344;23;20409;-87
2023/12/09 00:41:53;;;;;;;2.23;2.03;;;;;;;;;;6254840;22;20428;-87
2023/12/09 00:44:20;;;;;;;5.53;2.97;;;;;;;;;;6229478;23;20423;-87
2023/12/09 00:46:48;;;;;;;4.13;2.40;;;;;;;;;;6229475;23;20527;-87
2023/12/09 00:49:15;;;;;;;2.07;1.53;;;;;;;;;;6255392;23;20416;-87
2023/12/09 00:51:55;;;;;;;4.07;2.00;;;;;;;;;;6233228;23;20431;-88
2023/12/09 00:54:22;;;;;;;2.90;1.83;;;;;;;;;;6231890;23;20442;-87
2023/12/09 00:56:50;;;;;;;4.70;2.20;;;;;;;;;;6233768;23;20420;-86
2023/12/09 00:59:19;;;;;;;5.53;2.27;;;;;;;;;;6229764;23;20427;-87
2023/12/09 01:01:46;;;;;;;2.87;2.30;;;;;;;;;;6228982;23;20432;-85
2023/12/09 01:04:13;;;;;;;5.77;2.10;;;;;;;;;;6256077;23;20455;-88
2023/12/09 01:06:41;;;;;;;4.97;2.00;;;;;;;;;;6227925;23;20408;-88
2023/12/09 01:09:09;;;;;;;3.57;3.10;;;;;;;;;;6229115;23;20440;-86
2023/12/09 01:11:36;;;;;;;5.37;2.63;;;;;;;;;;6228116;23;20428;-86
2023/12/09 01:14:04;;;;;;;5.33;2.50;;;;;;;;;;6253479;23;20422;-86
2023/12/09 01:16:31;;;;;;;5.20;2.60;;;;;;;;;;6228586;23;20404;-87
2023/12/09 01:18:58;;;;;;;7.47;2.63;;;;;;;;;;6256578;23;20447;-87
2023/12/09 01:21:26;;;;;;;4.47;2.53;;;;;;;;;;6256680;22;20463;-88
2023/12/09 01:23:53;;;;;;;4.20;2.53;;;;;;;;;;6236649;23;20430;-87
2023/12/09 01:26:21;;;;;;;8.63;2.80;;;;;;;;;;6240661;23;20248;-88
2023/12/09 01:28:48;;;;;;;4.03;2.23;;;;;;;;;;6265479;23;20444;-88
2023/12/09 01:31:15;;;;;;;6.17;2.17;;;;;;;;;;6262025;22;20452;-88
2023/12/09 01:33:42;;;;;;;2.93;2.17;;;;;;;;;;6233394;23;20404;-87
2023/12/09 01:36:11;;;;;;;6.57;2.37;;;;;;;;;;6260796;23;20412;-87
2023/12/09 01:38:38;;;;;;;2.90;1.87;;;;;;;;;;6259185;23;20416;-88
2023/12/09 01:41:06;;;;;;;3.70;2.80;;;;;;;;;;6231132;23;20428;-87
2023/12/09 01:43:34;;;;;;;5.93;2.33;;;;;;;;;;6231277;23;20415;-88
2023/12/09 01:46:10;;;;;;;2.03;1.77;;;;;;;;;;6234097;23;20431;-89
2023/12/09 01:48:40;;;;;;;2.87;2.00;;;;;;;;;;6232373;23;20436;-87
2023/12/09 01:51:08;;;;;;;4.47;1.90;;;;;;;;;;6233281;23;20420;-88
2023/12/09 01:53:37;;;;;;;7.83;2.37;;;;;;;;;;6259346;23;20491;-88
2023/12/09 01:56:09;;;;;;;6.28;2.17;;;;;;;;;;6232474;23;20404;-88
2023/12/09 01:58:37;;;;;;;3.80;1.70;;;;;;;;;;6259106;23;20197;-89
2023/12/09 02:01:05;;;;;;;4.07;2.07;;;;;;;;;;6259656;22;20494;-89
2023/12/09 02:03:36;;;;;;;2.50;1.77;;;;;;;;;;6257490;23;20439;-88
2023/12/09 02:06:05;;;;;;;7.17;2.20;;;;;;;;;;6256758;23;20422;-86
2023/12/09 02:08:44;;;;;;;5.67;2.03;;;;;;;;;;6234471;23;20447;-87
2023/12/09 02:11:25;;;;;;;2.70;2.30;;;;;;;;;;6233250;23;20424;-87
2023/12/09 02:14:10;;;;;;;1.93;1.70;;;;;;;;;;6233741;23;20420;-85
2023/12/09 02:16:43;;;;;;;4.40;2.20;;;;;;;;;;6232722;23;20483;-88
2023/12/09 02:19:14;;;;;;;4.90;2.13;;;;;;;;;;6233404;23;20408;-87
2023/12/09 02:21:58;;;;;;;3.57;1.93;;;;;;;;;;6258956;22;20428;-87
2023/12/09 02:24:27;;;;;;;4.20;2.20;;;;;;;;;;6235718;23;20445;-88
2023/12/09 02:29:56;;;;;;;3.63;1.80;;;;;;;;;;6264335;22;20471;-89
2023/12/09 02:32:26;;;;;;;5.13;2.33;;;;;;;;;;6234161;23;20423;-87
2023/12/09 02:34:55;;;;;;;3.50;1.90;;;;;;;;;;6232310;23;20400;-86
2023/12/09 02:37:29;;;;;;;6.13;2.53;;;;;;;;;;6232928;23;20769;-88
2023/12/09 02:40:01;;;;;;;4.57;2.23;;;;;;;;;;6232238;22;20430;-85
2023/12/09 02:42:29;;;;;;;3.37;2.40;;;;;;;;;;6257673;23;20400;-87
2023/12/09 02:45:01;;;;;;;6.27;1.93;;;;;;;;;;6231148;23;20430;-86
2023/12/09 02:47:30;;;;;;;5.77;2.17;;;;;;;;;;6258711;23;20386;-86
2023/12/09 02:50:01;;;;;;;8.53;2.60;;;;;;;;;;6260292;22;20479;-88
2023/12/09 02:52:43;;;;;;;4.80;2.10;;;;;;;;;;6261188;23;20409;-88
2023/12/09 02:55:19;;;;;;;4.67;2.20;;;;;;;;;;6233052;23;20411;-85
2023/12/09 02:57:54;;;;;;;7.40;2.23;;;;;;;;;;6234257;23;20416;-87
2023/12/09 03:00:25;;;;;;;6.70;2.40;;;;;;;;;;6231550;22;20436;-87
2023/12/09 03:02:55;;;;;;;9.73;2.93;;;;;;;;;;6263270;22;20419;-89
2023/12/09 03:05:32;;;;;;;6.90;3.00;;;;;;;;;;6234888;23;20403;-86
2023/12/09 03:08:06;;;;;;;6.00;2.73;;;;;;;;;;6230811;23;20471;-87
2023/12/09 03:10:37;;;;;;;7.68;3.05;;;;;;;;;;6232071;23;20721;-87
2023/12/09 03:13:10;;;;;;;4.47;1.90;;;;;;;;;;6232357;23;20479;-86
2023/12/09 03:15:40;;;;;;;3.28;2.42;;;;;;;;;;6233564;23;20623;-88
2023/12/09 03:18:07;;;;;;;5.97;2.27;;;;;;;;;;6230339;23;20555;-86
2023/12/09 03:20:37;;;;;;;5.87;1.90;;;;;;;;;;6231912;23;20462;-88
2023/12/09 03:23:13;;;;;;;3.35;2.05;;;;;;;;;;6229847;23;20483;-86
2023/12/09 03:25:42;;;;;;;2.90;2.37;;;;;;;;;;6232213;23;20165;-86
2023/12/09 03:28:22;;;;;;;8.50;2.13;;;;;;;;;;6227699;23;20556;-86
2023/12/09 03:31:02;;;;;;;2.20;1.80;;;;;;;;;;6227240;23;20427;-86
2023/12/09 03:33:35;;;;;;;2.60;2.38;;;;;;;;;;6223986;23;20424;-86
2023/12/09 03:36:09;;;;;;;5.17;2.40;;;;;;;;;;6251364;23;20173;-86
2023/12/09 03:38:44;;;;;;;3.50;2.10;;;;;;;;;;6243525;22;20403;-89
2023/12/09 03:41:15;;;;;;;5.23;2.93;;;;;;;;;;6247637;22;20420;-89
2023/12/09 03:43:48;;;;;;;4.10;2.87;;;;;;;;;;6248671;22;20404;-89
2023/12/09 03:46:15;;;;;;;3.67;2.90;;;;;;;;;;6248196;22;20392;-89
2023/12/09 03:48:43;;;;;;;6.50;2.97;;;;;;;;;;6248409;22;20499;-88
2023/12/09 03:51:10;;;;;;;6.10;2.63;;;;;;;;;;6245918;22;20419;-89
2023/12/09 03:53:40;;;;;;;3.70;1.93;;;;;;;;;;6274884;22;20403;-87
2023/12/09 03:56:13;;;;;;;2.33;2.10;;;;;;;;;;6248055;22;20400;-85
2023/12/09 03:58:46;;;;;;;9.63;2.78;;;;;;;;;;6239381;23;20431;-86
2023/12/09 04:01:16;;;;;;;4.27;2.40;;;;;;;;;;6252220;22;20203;-87
2023/12/09 04:03:45;;;;;;;3.40;2.70;;;;;;;;;;6224900;23;20988;-87
2023/12/09 04:06:14;;;;;;;4.80;3.63;;;;;;;;;;6225091;23;20442;-87
2023/12/09 04:08:42;;;;;;;2.80;2.10;;;;;;;;;;6250842;23;20432;-87
2023/12/09 04:11:14;;;;;;;4.13;2.60;;;;;;;;;;6251156;22;20523;-87
2023/12/09 04:13:44;;;;;;;3.83;2.90;;;;;;;;;;6225324;23;20415;-88
2023/12/09 04:16:12;;;;;;;5.20;2.50;;;;;;;;;;6224433;23;20408;-88
2023/12/09 04:18:39;;;;;;;4.80;2.90;;;;;;;;;;6225264;23;20491;-88
2023/12/09 04:21:07;;;;;;;5.13;3.23;;;;;;;;;;6252513;22;20432;-88
2023/12/09 04:23:40;;;;;;;6.70;3.53;;;;;;;;;;6226225;23;20434;-88
2023/12/09 04:26:10;;;;;;;3.80;2.80;;;;;;;;;;6224204;23;20411;-86
2023/12/09 04:28:38;;;;;;;4.43;2.90;;;;;;;;;;6252229;23;20534;-87
2023/12/09 04:31:08;;;;;;;5.72;3.42;;;;;;;;;;6226800;23;20424;-87
2023/12/09 04:33:40;;;;;;;4.40;3.20;;;;;;;;;;6225325;23;20170;-87
2023/12/09 04:36:11;;;;;;;6.70;3.00;;;;;;;;;;6225894;23;20406;-87
2023/12/09 04:38:47;;;;;;;7.27;3.87;;;;;;;;;;6226585;23;20416;-88
2023/12/09 04:41:23;;;;;;;9.27;3.43;;;;;;;;;;6225467;23;20427;-86
2023/12/09 04:43:54;;;;;;;5.77;3.03;;;;;;;;;;6250709;23;20469;-87
2023/12/09 04:46:21;;;;;;;4.67;2.67;;;;;;;;;;6227260;23;20393;-88
2023/12/09 04:48:50;;;;;;;3.53;3.13;;;;;;;;;;6228079;23;20466;-87
2023/12/09 04:51:17;;;;;;;4.90;3.90;;;;;;;;;;6254851;22;20563;-87
2023/12/09 04:53:44;;;;;;;3.97;3.20;;;;;;;;;;6226319;23;20404;-87
2023/12/09 04:56:20;;;;;;;7.80;3.90;;;;;;;;;;6252658;23;20503;-87
2023/12/09 04:58:52;;;;;;;5.70;3.40;;;;;;;;;;6252046;23;20494;-87
2023/12/09 05:01:19;;;;;;;3.20;2.90;;;;;;;;;;6240399;22;20412;-88
2023/12/09 05:03:50;;;;;;;5.27;3.27;;;;;;;;;;6232015;23;20427;-87
2023/12/09 05:06:20;;;;;;;4.80;3.43;;;;;;;;;;6222830;23;20412;-87
2023/12/09 05:09:22;;;;;;;6.67;3.10;;;;;;;;;;6223046;23;20832;-87
2023/12/09 05:12:07;;;;;;;7.10;4.00;;;;;;;;;;6237630;23;20462;-86
2023/12/09 05:14:46;;;;;;;5.07;3.50;;;;;;;;;;6231143;23;20408;-88
2023/12/09 05:17:15;;;;;;;3.80;3.20;;;;;;;;;;6228577;23;20411;-87
2023/12/09 05:19:44;;;;;;;3.37;3.07;;;;;;;;;;6225334;23;20408;-87
2023/12/09 05:22:15;;;;;;;6.30;3.30;;;;;;;;;;6223208;23;20487;-88
2023/12/09 05:24:45;;;;;;;4.93;3.40;;;;;;;;;;6225547;23;20413;-87
2023/12/09 05:27:17;;;;;;;6.00;3.73;;;;;;;;;;6231034;23;20390;-88
2023/12/09 05:30:05;;;;;;;6.23;3.27;;;;;;;;;;6229255;23;20435;-88
2023/12/09 05:32:43;;;;;;;4.37;2.77;;;;;;;;;;6229279;23;20463;-88
2023/12/09 05:35:17;;;;;;;5.23;3.80;;;;;;;;;;6251406;23;20420;-87
2023/12/09 05:37:55;;;;;;;6.83;3.40;;;;;;;;;;6236643;23;20408;-88
2023/12/09 05:40:28;;;;;;;5.67;3.53;;;;;;;;;;6233417;22;20434;-88
2023/12/09 05:43:03;;;;;;;4.10;3.60;;;;;;;;;;6269994;22;20410;-89
2023/12/09 05:45:40;;;;;;;6.00;3.43;;;;;;;;;;6246441;22;20427;-89
2023/12/09 05:48:12;;;;;;;4.88;2.70;;;;;;;;;;6244817;23;20403;-88
2023/12/09 05:50:40;;;;;;;3.93;3.40;;;;;;;;;;6237756;23;20564;-88
2023/12/09 05:53:08;;;;;;;5.13;3.20;;;;;;;;;;6256303;23;20439;-86
2023/12/09 05:55:38;;;;;;;5.90;3.93;;;;;;;;;;6256878;23;20415;-88
2023/12/09 05:58:13;;;;;;;4.33;2.70;;;;;;;;;;6232521;23;20467;-87
2023/12/09 06:00:44;;;;;;;4.07;2.50;;;;;;;;;;6227919;23;20454;-88
2023/12/09 06:03:19;;;;;;;4.70;3.73;;;;;;;;;;6252272;23;20498;-85
2023/12/09 06:05:57;;;;;;;5.63;2.93;;;;;;;;;;6228677;23;20423;-87
2023/12/09 06:08:33;;;;;;;4.43;2.67;;;;;;;;;;6226197;23;20674;-88
2023/12/09 06:11:03;;;;;;;5.37;3.23;;;;;;;;;;6252171;22;20189;-87
2023/12/09 06:13:35;;;;;;;6.40;2.87;;;;;;;;;;6224900;23;20399;-87
2023/12/09 06:16:19;;;;;;;5.30;3.20;;;;;;;;;;6249809;23;20409;-88
2023/12/09 06:18:50;;;;;;;3.00;2.67;;;;;;;;;;6224607;23;20407;-87
2023/12/09 06:21:21;;;;;;;3.47;2.87;;;;;;;;;;6223168;23;20424;-87
2023/12/09 06:23:49;;;;;;;5.33;3.00;;;;;;;;;;6223809;23;20492;-87
2023/12/09 06:26:18;;;;;;;5.37;2.90;;;;;;;;;;6223581;23;20443;-87
2023/12/09 06:28:46;;;;;;;6.83;3.60;;;;;;;;;;6224069;23;20440;-88
2023/12/09 06:31:14;;;;;;;7.00;3.57;;;;;;;;;;6224970;23;20450;-87
2023/12/09 06:33:48;;;;;;;4.63;3.10;;;;;;;;;;6223461;23;20416;-87
2023/12/09 06:36:17;;;;;;;8.87;3.70;;;;;;;;;;6224185;23;20404;-86
2023/12/09 06:38:56;;;;;;;4.20;3.03;;;;;;;;;;6250274;23;20416;-88
2023/12/09 06:41:31;;;;;;;5.13;3.60;;;;;;;;;;6225112;23;20466;-89
2023/12/09 06:44:04;;;;;;;6.40;3.30;;;;;;;;;;6225880;23;20412;-87
2023/12/09 06:46:57;;;;;;;4.30;3.20;;;;;;;;;;6225118;23;20454;-87
2023/12/09 06:49:33;;;;;;;5.13;3.40;;;;;;;;;;6224772;23;20436;-88
2023/12/09 06:52:11;;;;;;;5.97;3.23;;;;;;;;;;6251053;22;20781;-88
2023/12/09 06:54:53;;;;;;;5.33;2.83;;;;;;;;;;6226268;23;20462;-87
2023/12/09 06:57:29;;;;;;;4.13;2.57;;;;;;;;;;6252068;23;20436;-87
2023/12/09 06:59:59;;;;;;;4.57;3.00;;;;;;;;;;6224635;23;20415;-87
2023/12/09 07:02:31;;;;;;;4.10;3.00;;;;;;;;;;6225706;23;20418;-87
2023/12/09 07:05:14;;;;;;;4.50;3.00;;;;;;;;;;6226531;23;20415;-87
2023/12/09 07:07:48;;;;;;;5.90;2.90;;;;;;;;;;6224639;23;20411;-88
2023/12/09 07:10:24;;;;;;;5.03;2.93;;;;;;;;;;6225515;22;20947;-87
2023/12/09 07:13:06;;;;;;;6.03;2.67;;;;;;;;;;6232282;23;20408;-86
2023/12/09 07:15:36;;;;;;;5.70;4.10;;;;;;;;;;6233453;23;20463;-88
2023/12/09 07:18:09;;;;;;;3.50;2.47;;;;;;;;;;6259877;23;20415;-87
2023/12/09 07:20:39;;;;;;;4.10;2.80;;;;;;;;;;6234965;23;20446;-88
2023/12/09 07:23:10;;;;;;;6.10;3.00;;;;;;;;;;6226233;23;20463;-86
2023/12/09 07:25:39;;;;;;;5.77;4.00;;;;;;;;;;6227227;23;20499;-87
2023/12/09 07:28:09;;;;;;;4.10;2.67;;;;;;;;;;6229034;23;20404;-87
2023/12/09 07:30:41;;;;;;;3.95;2.58;;;;;;;;;;6229365;23;20501;-88
2023/12/09 07:33:12;;;;;;;3.73;2.33;;;;;;;;;;6230934;23;20189;-89
2023/12/09 07:35:48;;;;;;;2.93;2.60;;;;;;;;;;6229862;23;20431;-87
2023/12/09 07:38:18;;;;;;;5.33;2.67;;;;;;;;;;6229119;23;20406;-87
2023/12/09 07:40:53;;;;;;;8.93;2.90;;;;;;;;;;6227941;23;20437;-88
2023/12/09 07:43:31;;;;;;;2.70;2.47;;;;;;;;;;6229762;23;20396;-87
2023/12/09 07:46:16;;;;;;;8.73;3.10;;;;;;;;;;6227923;23;20626;-87
2023/12/09 07:48:55;;;;;;;2.43;2.23;;;;;;;;;;6230585;23;20436;-88
2023/12/09 07:51:30;;;;;;;3.47;2.40;;;;;;;;;;6231928;23;20427;-86
2023/12/09 07:54:04;;;;;;;5.05;1.98;;;;;;;;;;6230952;23;20419;-87
2023/12/09 07:56:48;;;;;;;6.30;2.87;;;;;;;;;;6236794;23;20218;-88
2023/12/09 07:59:24;;;;;;;5.10;2.00;;;;;;;;;;6259120;23;20412;-87
2023/12/09 08:02:04;;;;;;;2.57;1.77;;;;;;;;;;6257567;22;20423;-87
2023/12/09 08:04:33;;;;;;;2.80;2.17;;;;;;;;;;6263525;23;20730;-87
2023/12/09 08:07:06;;;;;;;4.40;2.90;;;;;;;;;;6227811;23;20472;-87
2023/12/09 08:09:37;;;;;;;5.30;1.90;;;;;;;;;;6227290;23;20550;-87
2023/12/09 08:12:11;;;;;;;4.28;2.92;;;;;;;;;;6229777;23;20505;-87
2023/12/09 08:14:40;;;;;;;4.60;2.40;;;;;;;;;;6230330;23;20221;-87
2023/12/09 08:17:13;;;;;;;6.33;2.20;;;;;;;;;;6228227;23;20484;-87
2023/12/09 08:19:48;;;;;;;4.70;2.13;;;;;;;;;;6227909;23;20798;-89
2023/12/09 08:22:22;;;;;;;4.57;2.80;;;;;;;;;;6229261;23;20442;-87
2023/12/09 08:24:59;;;;;;;5.83;3.70;;;;;;;;;;6255467;23;20408;-87
2023/12/09 08:27:35;;;;;;;4.43;2.83;;;;;;;;;;6225601;23;20499;-87
2023/12/09 08:30:10;;;;;;;5.70;2.47;;;;;;;;;;6224679;22;20445;-87
2023/12/09 08:32:57;;;;;;;5.77;2.90;;;;;;;;;;6226627;23;20407;-88
2023/12/09 08:35:33;;;;;;;3.43;1.90;;;;;;;;;;6226765;23;20434;-87
2023/12/09 08:38:09;;;;;;;5.13;2.20;;;;;;;;;;6229329;23;20714;-86
2023/12/09 08:40:39;;;;;;;5.23;2.57;;;;;;;;;;6225151;23;20432;-87
2023/12/09 08:43:10;;;;;;;12.47;3.07;;;;;;;;;;6253964;23;20408;-87
2023/12/09 08:45:40;;;;;;;3.93;2.33;;;;;;;;;;6227510;23;20462;-87
2023/12/09 08:48:11;;;;;;;7.77;2.93;;;;;;;;;;6227924;23;20410;-89
2023/12/09 08:50:51;;;;;;;6.40;2.60;;;;;;;;;;6228465;23;20444;-88
2023/12/09 08:53:22;;;;;;;7.90;2.50;;;;;;;;;;6228225;23;20407;-87
2023/12/09 08:55:52;;;;;;;3.83;2.00;;;;;;;;;;6231103;23;20393;-88
2023/12/09 08:58:33;;;;;;;4.93;2.60;;;;;;;;;;6230494;23;20819;-86
2023/12/09 09:01:06;;;;;;;6.70;3.20;;;;;;;;;;6251749;22;20433;-87
2023/12/09 09:03:35;;;;;;;3.73;2.20;;;;;;;;;;6224154;23;20751;-87
2023/12/09 09:06:07;;;;;;;5.50;2.60;;;;;;;;;;6226049;23;20404;-86
2023/12/09 09:08:36;;;;;;;8.10;2.17;;;;;;;;;;6225738;23;20416;-88
2023/12/09 09:11:11;;;;;;;6.67;2.80;;;;;;;;;;6225453;23;20521;-87
2023/12/09 09:13:40;;;;;;;3.57;2.20;;;;;;;;;;6226077;23;20435;-87
2023/12/09 09:16:23;;;;;;;7.00;2.07;;;;;;;;;;6225741;23;20391;-86
2023/12/09 09:18:57;;;;;;;5.60;2.30;;;;;;;;;;6229075;23;20415;-87
2023/12/09 09:21:33;;;;;;;6.33;1.80;;;;;;;;;;6226809;23;20451;-87
2023/12/09 09:24:04;;;;;;;3.53;2.30;;;;;;;;;;6226314;23;20441;-87
2023/12/09 09:26:36;;;;;;;9.60;3.00;;;;;;;;;;6253932;23;20408;-87
2023/12/09 09:29:06;;;;;;;4.63;2.33;;;;;;;;;;6235713;23;20428;-86
2023/12/09 09:31:40;;;;;;;7.70;2.13;;;;;;;;;;6238194;23;20427;-87
2023/12/09 09:34:14;;;;;;;8.47;2.93;;;;;;;;;;6240643;23;20385;-88
2023/12/09 09:36:47;;;;;;;3.50;2.10;;;;;;;;;;6238649;23;20399;-88
2023/12/09 09:39:17;;;;;;;9.90;2.23;;;;;;;;;;6237276;23;20416;-87
2023/12/09 09:42:25;;;;;;;7.93;2.20;;;;;;;;;;6231745;23;20424;-87
2023/12/09 09:45:23;;;;;;;5.88;1.75;;;;;;;;;;6230099;22;20397;-88
2023/12/09 09:48:05;;;;;;;7.47;2.70;;;;;;;;;;6246764;22;20172;-87
2023/12/09 09:50:41;;;;;;;6.83;2.17;;;;;;;;;;6246389;22;20436;-86
2023/12/09 09:53:09;;;;;;;7.73;2.70;;;;;;;;;;6237946;23;20430;-87
2023/12/09 09:55:40;;;;;;;6.93;2.60;;;;;;;;;;6252828;23;20898;-85
2023/12/09 09:58:16;;;;;;;3.57;2.37;;;;;;;;;;6254838;23;20401;-87
2023/12/09 10:00:46;;;;;;;8.37;2.13;;;;;;;;;;6225727;22;20482;-90
2023/12/09 10:03:15;;;;;;;4.17;2.43;;;;;;;;;;6238623;23;20441;-88
2023/12/09 10:06:02;;;;;;;3.70;1.70;;;;;;;;;;6242002;23;20451;-88
2023/12/09 10:08:34;;;;;;;5.23;2.53;;;;;;;;;;6247295;22;20404;-86
2023/12/09 10:11:08;;;;;;;3.93;1.67;;;;;;;;;;6247834;22;20470;-87
2023/12/09 10:13:46;;;;;;;;;;;;;;;;;;;;;
2023/12/09 10:16:26;;;;;;;6.80;2.50;;;;;;;;;;6256436;23;20223;-87
2023/12/09 10:19:04;;;;;;;6.13;2.00;;;;;;;;;;6232137;23;20407;-88
2023/12/09 10:21:47;;;;;;;8.63;2.83;;;;;;;;;;6231644;23;20452;-87
2023/12/09 10:24:16;;;;;;;7.90;1.97;;;;;;;;;;6229696;23;20407;-88
2023/12/09 10:26:52;;;;;;;4.33;1.93;;;;;;;;;;6256740;23;20392;-86
2023/12/09 10:29:28;;;;;;;9.17;2.80;;;;;;;;;;6222304;23;20408;-86
2023/12/09 10:32:02;;;;;;;6.50;2.03;;;;;;;;;;6229980;23;20826;-86
2023/12/09 10:34:42;;;;;;;7.40;2.53;;;;;;;;;;6237487;23;20201;-87
2023/12/09 10:37:14;;;;;;;4.30;2.40;;;;;;;;;;6231184;23;20419;-86
2023/12/09 10:39:44;;;;;;;4.30;2.00;;;;;;;;;;6231881;23;20408;-87
2023/12/09 10:42:16;;;;;;;4.00;1.83;;;;;;;;;;6229265;23;20447;-88
2023/12/09 10:44:43;;;;;;;5.93;2.17;;;;;;;;;;6251403;23;20446;-88
2023/12/09 10:47:13;;;;;;;13.47;2.00;;;;;;;;;;6252330;23;21052;-88
2023/12/09 10:49:40;;;;;;;6.63;2.50;;;;;;;;;;6229030;23;20514;-87
2023/12/09 10:52:10;;;;;;;7.40;2.10;;;;;;;;;;6232655;23;20396;-87
2023/12/09 10:54:40;;;;;;;10.20;1.97;;;;;;;;;;6226850;23;20428;-89
2023/12/09 10:57:20;;;;;;;5.83;1.87;;;;;;;;;;6229435;23;20487;-87
2023/12/09 11:00:10;;;;;;;7.70;1.90;;;;;;;;;;6232670;23;20419;-87
2023/12/09 11:02:40;;;;;;;7.47;2.27;;;;;;;;;;6206127;23;20451;-88
2023/12/09 11:05:11;;;;;;;3.10;2.03;;;;;;;;;;6228247;23;20418;-88
2023/12/09 11:07:44;;;;;;;4.07;2.00;;;;;;;;;;6229045;23;20427;-84
2023/12/09 11:10:11;;;;;;;6.23;1.73;;;;;;;;;;6227427;22;20196;-86
2023/12/09 11:12:40;;;;;;;6.67;2.00;;;;;;;;;;6233201;23;20399;-87
2023/12/09 11:15:15;;;;;;;9.23;1.97;;;;;;;;;;6229821;23;20439;-89
2023/12/09 11:17:45;;;;;;;8.07;2.53;;;;;;;;;;6229954;23;20454;-89
2023/12/09 11:20:38;;;;;;;5.67;2.30;;;;;;;;;;6231614;22;20412;-86
2023/12/09 11:23:07;;;;;;;5.07;2.10;;;;;;;;;;6258274;23;20416;-87
2023/12/09 11:25:38;;;;;;;3.23;1.90;;;;;;;;;;6230836;23;20435;-88
2023/12/09 11:28:12;;;;;;;4.18;1.75;;;;;;;;;;6233936;23;20406;-87
2023/12/09 11:30:58;;;;;;;3.78;2.10;;;;;;;;;;6236268;23;20193;-88
2023/12/09 11:33:31;;;;;;;5.60;1.60;;;;;;;;;;6232526;23;20172;-87
2023/12/09 11:35:59;;;;;;;5.70;2.33;;;;;;;;;;6239094;23;20408;-88
2023/12/09 11:38:28;;;;;;;5.37;1.73;;;;;;;;;;6238444;23;20476;-87
2023/12/09 11:41:14;;;;;;;8.23;2.07;;;;;;;;;;6230404;23;20747;-87
2023/12/09 11:43:55;;;;;;;8.93;2.00;;;;;;;;;;6238146;23;20385;-87
2023/12/09 11:46:24;;;;;;;3.90;1.37;;;;;;;;;;6243610;23;20438;-86
2023/12/09 11:48:57;;;;;;;4.67;2.43;;;;;;;;;;6240127;23;20395;-87
2023/12/09 11:51:30;;;;;;;1.57;1.17;;;;;;;;;;6234402;23;20494;-87
2023/12/09 11:54:07;;;;;;;6.97;1.67;;;;;;;;;;6229019;23;20745;-88
2023/12/09 11:56:37;;;;;;;2.20;1.57;;;;;;;;;;6230617;23;20406;-86
2023/12/09 11:59:07;;;;;;;2.87;1.03;;;;;;;;;;6255321;23;20475;-86
2023/12/09 12:01:36;;;;;;;1.90;1.00;;;;;;;;;;6256817;22;20444;-86
2023/12/09 12:04:12;;;;;;;3.47;1.67;;;;;;;;;;6229571;23;20428;-87
2023/12/09 12:06:43;;;;;;;4.87;1.27;;;;;;;;;;6232274;23;20408;-87
2023/12/09 12:09:17;;;;;;;2.10;1.03;;;;;;;;;;6233454;23;20479;-86
2023/12/09 12:11:47;;;;;;;1.27;0.60;;;;;;;;;;6239765;23;20446;-88
2023/12/09 12:14:21;;;;;;;2.50;1.07;;;;;;;;;;6240669;22;20408;-87
2023/12/09 12:17:17;;;;;;;2.70;1.13;;;;;;;;;;6238702;23;20468;-87
2023/12/09 12:19:44;;;;;;;5.40;1.80;;;;;;;;;;6237410;23;20404;-89
2023/12/09 12:22:17;;;;;;;3.13;1.53;;;;;;;;;;6228211;23;20428;-89
2023/12/09 12:24:50;;;;;;;1.60;0.93;;;;;;;;;;6255798;23;20408;-87
2023/12/09 12:27:26;;;;;;;2.57;1.00;;;;;;;;;;6231663;23;20955;-87
2023/12/09 12:29:58;;;;;;;1.10;1.00;;;;;;;;;;6233145;23;20475;-87
2023/12/09 12:32:29;;;;;;;2.53;1.00;;;;;;;;;;6261256;22;20491;-86
2023/12/09 12:34:56;;;;;;;1.73;1.13;;;;;;;;;;6231132;23;20911;-86
2023/12/09 12:37:29;;;;;;;2.70;0.70;;;;;;;;;;6232430;23;20157;-86
2023/12/09 12:40:00;;;;;;;7.97;2.20;;;;;;;;;;6257219;23;20405;-88
2023/12/09 12:42:30;;;;;;;2.77;1.67;;;;;;;;;;6256305;22;20428;-86
2023/12/09 12:45:06;;;;;;;2.67;1.27;;;;;;;;;;6233482;23;20447;-86
2023/12/09 12:47:33;;;;;;;3.07;1.07;;;;;;;;;;6232670;23;20411;-88
2023/12/09 12:50:01;;;;;;;0.70;0.60;;;;;;;;;;6231132;23;20408;-87
2023/12/09 12:52:33;;;;;;;1.10;1.00;;;;;;;;;;6257745;23;20169;-87
2023/12/09 12:55:01;;;;;;;2.20;1.40;;;;;;;;;;6228430;23;20460;-87
2023/12/09 12:57:31;;;;;;;3.53;1.67;;;;;;;;;;6232033;23;20181;-86
2023/12/09 13:00:03;;;;;;;3.73;0.90;;;;;;;;;;6237643;23;20431;-87
2023/12/09 13:02:49;;;;;;;3.83;1.60;;;;;;;;;;6239304;23;20428;-86
2023/12/09 13:05:19;;;;;;;5.37;2.83;;;;;;;;;;6266880;23;20396;-88
2023/12/09 13:08:01;;;;;;;2.30;1.57;;;;;;;;;;6265013;23;20400;-87
2023/12/09 13:10:28;;;;;;;3.43;1.90;;;;;;;;;;6265989;22;20444;-88
2023/12/09 13:12:58;;;;;;;2.95;2.15;;;;;;;;;;6264274;23;20404;-89
2023/12/09 13:15:27;;;;;;;3.63;2.30;;;;;;;;;;6236462;23;20171;-89
2023/12/09 13:17:58;;;;;;;4.73;2.03;;;;;;;;;;6234457;23;20419;-89
2023/12/09 13:20:26;;;;;;;7.20;3.20;;;;;;;;;;6264467;22;20428;-88
2023/12/09 13:22:55;;;;;;;4.40;2.73;;;;;;;;;;6239152;23;20483;-87
2023/12/09 13:25:25;;;;;;;6.57;3.07;;;;;;;;;;6241607;23;20411;-89
2023/12/09 13:27:53;;;;;;;5.53;4.05;;;;;;;;;;6238016;23;20384;-89
2023/12/09 13:30:22;;;;;;;4.93;2.57;;;;;;;;;;6243682;22;20193;-89
2023/12/09 13:32:53;;;;;;;5.20;3.00;;;;;;;;;;6237791;23;20993;-88
2023/12/09 13:35:23;;;;;;;5.50;2.57;;;;;;;;;;6236135;23;20399;-88
2023/12/09 13:37:57;;;;;;;3.80;2.80;;;;;;;;;;6262802;23;20410;-87
2023/12/09 13:40:33;;;;;;;5.22;2.88;;;;;;;;;;6264105;22;20432;-87
2023/12/09 13:43:01;;;;;;;4.93;3.00;;;;;;;;;;6236328;23;20166;-87
2023/12/09 13:45:35;;;;;;;6.00;2.50;;;;;;;;;;6241660;23;20421;-88
2023/12/09 13:48:09;;;;;;;5.20;2.67;;;;;;;;;;6242640;23;20396;-89
2023/12/09 13:50:39;;;;;;;2.03;1.85;;;;;;;;;;6244728;23;20455;-87
2023/12/09 13:53:21;;;;;;;5.17;3.00;;;;;;;;;;6204135;23;20163;-87
2023/12/09 13:56:05;;;;;;;3.23;2.70;;;;;;;;;;6200371;23;20390;-88
2023/12/09 13:58:36;;;;;;;10.33;2.97;;;;;;;;;;6198189;23;20453;-88
2023/12/09 14:01:15;;;;;;;3.97;2.07;;;;;;;;;;6197564;23;20426;-85
2023/12/09 14:03:44;;;;;;;6.25;2.05;;;;;;;;;;6197649;23;20413;-87
2023/12/09 14:06:13;;;;;;;5.20;2.40;;;;;;;;;;6199373;23;20190;-88
2023/12/09 14:08:57;;;;;;;7.80;2.63;;;;;;;;;;6202936;23;20386;-88
2023/12/09 14:11:27;;;;;;;3.33;1.80;;;;;;;;;;6204763;23;20442;-87
2023/12/09 14:13:57;;;;;;;3.50;2.03;;;;;;;;;;6200430;23;20171;-90
2023/12/09 14:16:25;;;;;;;2.67;1.90;;;;;;;;;;6199189;23;20438;-88
2023/12/09 14:19:01;;;;;;;3.40;1.80;;;;;;;;;;6198277;23;20398;-88
2023/12/09 14:21:35;;;;;;;4.47;2.13;;;;;;;;;;6197163;23;20448;-89
2023/12/09 14:24:03;;;;;;;5.27;2.53;;;;;;;;;;6219792;23;20439;-88
2023/12/09 14:26:31;;;;;;;4.45;1.95;;;;;;;;;;6238028;22;20424;-89
2023/12/09 14:29:07;;;;;;;2.88;2.58;;;;;;;;;;6234776;23;20158;-88
2023/12/09 14:31:41;;;;;;;2.10;1.60;;;;;;;;;;6239799;23;20228;-89
2023/12/09 14:34:11;;;;;;;3.00;1.50;;;;;;;;;;6227220;23;20187;-87
2023/12/09 14:36:42;;;;;;;1.73;1.60;;;;;;;;;;6233362;23;20494;-88
2023/12/09 14:39:11;;;;;;;4.77;2.50;;;;;;;;;;6233506;23;20408;-88
2023/12/09 14:41:43;;;;;;;3.30;2.50;;;;;;;;;;6233809;23;20467;-90
2023/12/09 14:44:11;;;;;;;4.83;1.77;;;;;;;;;;6232898;23;20400;-87
2023/12/09 14:46:42;;;;;;;2.13;1.40;;;;;;;;;;6233054;23;20416;-89
2023/12/09 14:49:12;;;;;;;2.93;2.07;;;;;;;;;;6262073;23;20405;-89
2023/12/09 14:51:54;;;;;;;2.10;1.80;;;;;;;;;;6239889;23;20455;-88
2023/12/09 14:54:22;;;;;;;3.40;1.42;;;;;;;;;;6235517;23;20165;-88
2023/12/09 14:57:07;;;;;;;3.67;1.83;;;;;;;;;;6246087;22;20240;-87
2023/12/09 14:59:39;;;;;;;2.00;1.67;;;;;;;;;;6237102;23;20414;-88
2023/12/09 15:02:19;;;;;;;4.17;1.37;;;;;;;;;;6231557;22;20519;-87
2023/12/09 15:04:47;;;;;;;2.20;1.67;;;;;;;;;;6241395;23;20415;-88
2023/12/09 15:07:18;;;;;;;2.17;2.03;;;;;;;;;;6236227;23;20400;-88
2023/12/09 15:09:47;;;;;;;2.40;1.00;;;;;;;;;;6260149;23;20424;-89
2023/12/09 15:12:14;;;;;;;2.90;2.00;;;;;;;;;;6263494;22;20447;-88
2023/12/09 15:14:45;;;;;;;3.70;1.70;;;;;;;;;;6244545;23;20399;-88
2023/12/09 15:17:26;;;;;;;1.70;1.50;;;;;;;;;;6215497;22;20446;-88
2023/12/09 15:19:55;;;;;;;2.57;1.10;;;;;;;;;;6233653;23;20409;-88